Time;durP1;ratioP1;P1;durP2;ratioP2;P2;SDS_P1;SDS_P2;PMS_P1;PMS_P2;Temp;Humidity;BMP_temperature;BMP_pressure;BME280_temperature;BME280_humidity;BME280_pressure;Samples;Min_cycle;Max_cycle;Signal;HPM_P1;HPM_P2
2021/06/26 00:01:50;;;;;;;22.17;7.13;;;31.70;52.90;;;;;;5106552;28;20047;-49
2021/06/26 00:04:25;;;;;;;16.60;6.25;;;31.70;52.90;;;;;;5114754;27;20489;-50
2021/06/26 00:06:53;;;;;;;15.70;5.72;;;31.70;52.70;;;;;;5081803;27;20038;-50
2021/06/26 00:09:21;;;;;;;21.05;7.05;;;31.70;52.60;;;;;;5116547;27;20107;-48
2021/06/26 00:11:49;;;;;;;22.85;6.53;;;31.70;52.60;;;;;;5133803;27;20058;-48
2021/06/26 00:14:17;;;;;;;14.18;6.28;;;31.70;52.40;;;;;;5116510;27;20055;-48
2021/06/26 00:16:45;;;;;;;17.90;6.20;;;31.70;52.60;;;;;;5115811;27;20126;-48
2021/06/26 00:19:12;;;;;;;15.13;7.78;;;31.70;52.80;;;;;;5099692;27;20047;-48
2021/06/26 00:21:40;;;;;;;19.02;6.78;;;31.60;52.90;;;;;;5133807;27;20045;-48
2021/06/26 00:24:08;;;;;;;21.15;6.68;;;31.50;52.80;;;;;;5116087;27;20062;-48
2021/06/26 00:26:36;;;;;;;20.98;8.80;;;31.50;53.00;;;;;;5093183;27;20043;-49
2021/06/26 00:29:03;;;;;;;18.75;5.85;;;31.40;53.10;;;;;;5134600;27;20112;-52
2021/06/26 00:31:31;;;;;;;21.90;7.15;;;31.40;53.40;;;;;;5114390;27;20046;-49
2021/06/26 00:33:59;;;;;;;12.68;5.47;;;31.40;53.40;;;;;;5134214;27;20054;-52
2021/06/26 00:36:26;;;;;;;12.98;6.63;;;31.40;53.20;;;;;;5115056;27;20122;-49
2021/06/26 00:38:54;;;;;;;17.88;7.22;;;31.40;52.90;;;;;;5115692;27;20055;-51
2021/06/26 00:41:22;;;;;;;21.08;7.10;;;31.30;52.70;;;;;;5097630;28;20039;-49
2021/06/26 00:44:02;;;;;;;33.83;8.50;;;31.30;52.70;;;;;;5099883;28;20051;-49
2021/06/26 00:46:29;;;;;;;16.85;7.38;;;31.30;52.80;;;;;;5115612;28;20058;-48
2021/06/26 00:48:57;;;;;;;20.05;7.60;;;31.30;52.80;;;;;;5116054;28;20047;-49
2021/06/26 00:51:25;;;;;;;20.20;6.80;;;31.30;52.90;;;;;;5112330;28;20055;-50
2021/06/26 00:53:53;;;;;;;23.85;8.38;;;31.30;53.10;;;;;;5081436;28;20051;-48
2021/06/26 00:56:21;;;;;;;24.23;7.03;;;31.30;53.40;;;;;;5106712;28;20043;-47
2021/06/26 00:58:53;;;;;;;14.95;7.15;;;31.30;53.50;;;;;;5111119;28;20054;-49
2021/06/26 01:01:21;;;;;;;17.25;6.82;;;31.20;53.70;;;;;;5096219;28;20083;-48
2021/06/26 01:03:49;;;;;;;16.75;7.70;;;31.20;53.90;;;;;;5103490;28;20541;-48
2021/06/26 01:06:17;;;;;;;20.60;7.18;;;31.20;54.00;;;;;;5097034;28;20042;-51
2021/06/26 01:08:45;;;;;;;23.30;7.28;;;31.20;54.30;;;;;;5113919;28;20047;-48
2021/06/26 01:11:13;;;;;;;16.52;7.25;;;31.20;54.50;;;;;;5096065;28;20043;-49
2021/06/26 01:13:41;;;;;;;18.98;8.57;;;31.20;54.70;;;;;;5113686;28;20513;-49
2021/06/26 01:16:08;;;;;;;21.95;8.80;;;31.10;54.80;;;;;;5113637;28;20035;-48
2021/06/26 01:18:36;;;;;;;20.83;8.73;;;31.10;55.20;;;;;;5114103;28;20047;-49
2021/06/26 01:21:04;;;;;;;16.00;8.05;;;31.00;55.40;;;;;;5131950;27;20051;-49
2021/06/26 01:23:32;;;;;;;16.98;7.65;;;31.00;55.60;;;;;;5131631;28;20079;-48
2021/06/26 01:26:00;;;;;;;18.77;8.70;;;31.00;55.80;;;;;;5098310;28;20051;-49
2021/06/26 01:28:27;;;;;;;21.25;9.32;;;31.00;56.10;;;;;;5098694;28;20039;-48
2021/06/26 01:30:55;;;;;;;17.00;7.63;;;31.00;56.30;;;;;;5115231;28;20047;-49
2021/06/26 01:33:23;;;;;;;21.67;8.73;;;31.00;56.50;;;;;;5098214;28;20415;-49
2021/06/26 01:35:51;;;;;;;20.52;8.15;;;30.90;56.60;;;;;;5098638;28;20054;-47
2021/06/26 01:38:19;;;;;;;28.00;9.75;;;31.00;56.80;;;;;;5133217;28;20523;-49
2021/06/26 01:40:46;;;;;;;17.25;8.50;;;31.00;56.90;;;;;;5115533;28;20416;-51
2021/06/26 01:43:14;;;;;;;19.45;7.95;;;30.90;57.00;;;;;;5102977;28;20051;-53
2021/06/26 01:45:42;;;;;;;20.05;8.10;;;30.90;57.00;;;;;;5115751;28;20468;-52
2021/06/26 01:48:09;;;;;;;22.70;8.13;;;30.90;57.10;;;;;;5132846;27;20054;-49
2021/06/26 01:50:37;;;;;;;23.02;10.13;;;30.90;57.20;;;;;;5115379;28;20092;-53
2021/06/26 01:53:05;;;;;;;26.92;8.65;;;30.90;57.30;;;;;;5102109;27;20055;-47
2021/06/26 01:55:33;;;;;;;27.58;9.25;;;30.90;57.90;;;;;;5102556;27;20051;-50
2021/06/26 01:58:00;;;;;;;19.45;7.72;;;30.80;57.50;;;;;;5101589;27;20047;-51
2021/06/26 02:00:28;;;;;;;20.30;8.65;;;30.90;57.70;;;;;;5102610;27;20043;-49
2021/06/26 02:02:57;;;;;;;20.17;9.50;;;30.80;57.70;;;;;;5097721;28;20055;-49
2021/06/26 02:05:25;;;;;;;18.65;9.02;;;30.80;57.70;;;;;;5116628;28;20059;-48
2021/06/26 02:07:53;;;;;;;27.38;8.50;;;30.80;57.80;;;;;;5098281;27;20520;-50
2021/06/26 02:10:21;;;;;;;20.75;8.88;;;30.80;57.80;;;;;;5119143;27;20047;-48
2021/06/26 02:12:49;;;;;;;20.23;8.75;;;30.80;57.80;;;;;;5107547;28;20048;-47
2021/06/26 02:15:16;;;;;;;27.42;9.07;;;30.80;57.80;;;;;;5100693;27;20154;-48
2021/06/26 02:17:44;;;;;;;24.88;8.90;;;30.80;57.90;;;;;;5136135;27;20071;-48
2021/06/26 02:20:12;;;;;;;21.25;9.95;;;30.80;57.90;;;;;;5118210;27;20384;-49
2021/06/26 02:22:42;;;;;;;27.05;10.50;;;30.70;57.90;;;;;;5092080;28;20048;-48
2021/06/26 02:25:10;;;;;;;20.45;9.05;;;30.70;58.10;;;;;;5099338;27;20043;-48
2021/06/26 02:27:38;;;;;;;22.67;10.02;;;30.60;58.20;;;;;;5101032;27;20362;-49
2021/06/26 02:30:08;;;;;;;19.38;10.07;;;30.60;58.30;;;;;;5101192;27;20051;-48
2021/06/26 02:32:36;;;;;;;15.63;8.13;;;30.50;58.40;;;;;;5109056;28;20052;-48
2021/06/26 02:35:05;;;;;;;22.70;8.65;;;30.50;58.50;;;;;;5115746;27;20408;-50
2021/06/26 02:37:33;;;;;;;20.77;8.57;;;30.50;58.60;;;;;;5136052;27;20507;-48
2021/06/26 02:40:01;;;;;;;13.75;8.18;;;30.40;58.60;;;;;;5118157;27;20065;-48
2021/06/26 02:42:29;;;;;;;23.95;9.55;;;30.40;58.70;;;;;;5100624;27;20055;-48
2021/06/26 02:44:56;;;;;;;19.52;8.15;;;30.30;58.80;;;;;;5117825;27;20099;-51
2021/06/26 02:47:24;;;;;;;22.95;9.32;;;30.20;58.90;;;;;;5093625;28;20081;-48
2021/06/26 02:49:51;;;;;;;27.15;8.75;;;30.00;59.20;;;;;;5113448;27;20053;-50
2021/06/26 02:52:19;;;;;;;21.60;8.32;;;29.90;59.50;;;;;;5099995;27;20043;-53
2021/06/26 02:54:47;;;;;;;22.23;9.85;;;29.80;59.80;;;;;;5101304;27;20051;-51
2021/06/26 02:57:15;;;;;;;24.95;9.10;;;29.70;60.00;;;;;;5114464;27;20123;-48
2021/06/26 02:59:44;;;;;;;20.45;9.10;;;29.50;60.30;;;;;;5117723;27;20047;-49
2021/06/26 03:02:12;;;;;;;27.02;9.57;;;29.50;60.60;;;;;;5099968;27;20126;-48
2021/06/26 03:04:39;;;;;;;21.27;9.52;;;29.50;60.80;;;;;;5118133;27;20050;-48
2021/06/26 03:07:07;;;;;;;23.20;8.60;;;29.50;60.90;;;;;;5114040;27;20453;-49
2021/06/26 03:09:35;;;;;;;22.15;8.35;;;29.50;60.90;;;;;;5118315;27;20043;-48
2021/06/26 03:12:04;;;;;;;26.17;8.95;;;29.50;61.00;;;;;;5096900;27;20071;-48
2021/06/26 03:14:32;;;;;;;22.75;9.43;;;29.50;61.00;;;;;;5101143;27;20163;-49
2021/06/26 03:17:00;;;;;;;24.50;8.02;;;29.50;61.10;;;;;;5135271;27;20084;-48
2021/06/26 03:19:28;;;;;;;22.38;9.63;;;29.40;61.10;;;;;;5118038;27;20078;-48
2021/06/26 03:21:55;;;;;;;17.83;8.52;;;29.40;61.50;;;;;;5113957;27;20488;-51
2021/06/26 03:24:23;;;;;;;17.75;7.63;;;29.40;61.70;;;;;;5117512;27;20054;-49
2021/06/26 03:26:51;;;;;;;23.00;8.68;;;29.50;61.70;;;;;;5096922;27;20043;-48
2021/06/26 03:29:18;;;;;;;23.30;9.68;;;29.50;61.40;;;;;;5117238;27;20043;-49
2021/06/26 03:31:46;;;;;;;23.92;8.23;;;29.60;61.20;;;;;;5134642;27;20051;-50
2021/06/26 03:34:14;;;;;;;21.90;8.02;;;29.50;61.30;;;;;;5099936;27;20081;-50
2021/06/26 03:36:42;;;;;;;19.88;8.40;;;29.50;61.40;;;;;;5113681;27;20047;-49
2021/06/26 03:39:10;;;;;;;25.13;8.15;;;29.50;61.60;;;;;;5108009;27;20054;-48
2021/06/26 03:41:38;;;;;;;15.32;7.50;;;29.50;61.70;;;;;;5116630;27;20047;-49
2021/06/26 03:44:05;;;;;;;24.30;8.77;;;29.50;61.70;;;;;;5134962;27;20074;-48
2021/06/26 03:46:35;;;;;;;21.42;7.70;;;29.60;61.80;;;;;;5134374;27;20100;-48
2021/06/26 03:49:04;;;;;;;18.65;7.35;;;29.60;61.70;;;;;;5117295;27;20138;-48
2021/06/26 03:51:32;;;;;;;14.30;6.65;;;29.70;61.70;;;;;;5096296;27;20051;-48
2021/06/26 03:53:59;;;;;;;18.15;6.38;;;29.70;61.70;;;;;;5117045;27;20039;-48
2021/06/26 03:56:27;;;;;;;17.80;7.40;;;29.80;61.70;;;;;;5116420;27;20047;-48
2021/06/26 03:58:55;;;;;;;16.35;6.80;;;29.90;61.60;;;;;;5116850;27;20039;-48
2021/06/26 04:01:22;;;;;;;20.80;7.22;;;30.10;61.40;;;;;;5115641;27;20076;-49
2021/06/26 04:03:50;;;;;;;15.52;7.90;;;30.20;61.40;;;;;;5112554;27;20054;-49
2021/06/26 04:06:18;;;;;;;21.50;7.03;;;30.30;61.20;;;;;;5115534;27;20042;-51
2021/06/26 04:08:46;;;;;;;18.98;6.78;;;30.40;61.20;;;;;;5116452;27;20512;-49
2021/06/26 04:11:13;;;;;;;18.52;7.53;;;30.50;61.20;;;;;;5116041;27;20497;-50
2021/06/26 04:13:43;;;;;;;27.52;7.07;;;30.60;61.00;;;;;;5115730;28;20052;-49
2021/06/26 04:16:10;;;;;;;18.80;7.03;;;30.70;60.90;;;;;;5081867;27;20039;-48
2021/06/26 04:18:38;;;;;;;16.00;6.13;;;30.80;60.60;;;;;;5116657;27;20057;-50
2021/06/26 04:21:06;;;;;;;15.48;7.63;;;30.90;60.70;;;;;;5098573;28;20142;-50
2021/06/26 04:23:34;;;;;;;17.98;6.55;;;31.00;60.70;;;;;;5086568;27;20400;-49
2021/06/26 04:26:01;;;;;;;16.10;8.38;;;31.00;60.60;;;;;;5115848;27;20058;-50
2021/06/26 04:28:29;;;;;;;17.20;6.40;;;31.10;60.60;;;;;;5099232;27;20492;-49
2021/06/26 04:30:58;;;;;;;28.58;7.95;;;31.20;60.70;;;;;;5099188;27;20099;-50
2021/06/26 04:33:27;;;;;;;13.48;5.97;;;31.30;60.60;;;;;;5081597;27;20054;-54
2021/06/26 04:35:55;;;;;;;21.35;8.35;;;31.40;60.50;;;;;;5115412;27;20117;-49
2021/06/26 04:38:22;;;;;;;21.00;6.50;;;31.50;60.50;;;;;;5115630;28;20509;-51
2021/06/26 04:40:51;;;;;;;13.73;6.60;;;31.60;60.70;;;;;;5134661;27;20047;-49
2021/06/26 04:43:22;;;;;;;18.48;6.65;;;31.70;60.60;;;;;;5093647;27;20051;-48
2021/06/26 04:45:51;;;;;;;19.48;6.60;;;31.90;61.80;;;;;;5082954;28;20051;-48
2021/06/26 04:48:24;;;;;;;20.45;6.97;;;32.00;61.10;;;;;;5114606;28;20441;-48
2021/06/26 04:50:52;;;;;;;29.27;7.65;;;32.10;60.90;;;;;;5115769;28;20100;-51
2021/06/26 04:53:20;;;;;;;16.60;6.60;;;32.20;61.10;;;;;;5082104;28;20047;-48
2021/06/26 04:55:51;;;;;;;24.48;7.75;;;32.40;62.40;;;;;;5115967;28;20047;-48
2021/06/26 04:58:23;;;;;;;19.23;5.97;;;32.50;60.50;;;;;;5098025;28;20051;-50
2021/06/26 05:00:52;;;;;;;21.48;5.85;;;32.70;60.50;;;;;;5116046;28;20139;-48
2021/06/26 05:03:22;;;;;;;17.48;6.00;;;32.80;60.00;;;;;;5115610;27;20139;-48
2021/06/26 05:05:50;;;;;;;17.98;5.63;;;32.90;60.30;;;;;;5099080;28;20043;-49
2021/06/26 05:08:19;;;;;;;19.92;6.55;;;33.00;59.10;;;;;;5115531;28;20400;-50
2021/06/26 05:10:48;;;;;;;17.15;6.35;;;33.10;58.20;;;;;;5082259;28;20385;-53
2021/06/26 05:13:16;;;;;;;17.92;7.10;;;33.10;57.70;;;;;;5103028;28;20126;-51
2021/06/26 05:15:45;;;;;;;12.38;6.60;;;33.20;56.70;;;;;;5116082;28;20050;-53
2021/06/26 05:18:12;;;;;;;18.85;7.40;;;33.20;56.70;;;;;;5115174;28;20047;-49
2021/06/26 05:20:42;;;;;;;20.10;7.68;;;33.30;56.20;;;;;;5115589;28;20047;-48
2021/06/26 05:23:15;;;;;;;23.13;7.22;;;33.30;55.90;;;;;;5103180;28;20553;-49
2021/06/26 05:25:44;;;;;;;23.20;8.05;;;33.40;55.80;;;;;;5136048;27;20384;-48
2021/06/26 05:28:12;;;;;;;21.80;8.13;;;33.50;55.60;;;;;;5118477;27;20071;-49
2021/06/26 05:30:40;;;;;;;21.38;8.48;;;33.60;55.40;;;;;;5086260;27;20399;-49
2021/06/26 05:33:09;;;;;;;20.45;6.78;;;33.70;55.10;;;;;;5090253;27;20069;-52
2021/06/26 05:35:37;;;;;;;22.23;7.32;;;33.70;55.20;;;;;;5119622;27;20087;-50
2021/06/26 05:38:05;;;;;;;17.23;8.13;;;33.70;55.00;;;;;;5106993;27;20047;-49
2021/06/26 05:40:33;;;;;;;17.00;8.27;;;33.80;55.00;;;;;;5119890;27;20127;-50
2021/06/26 05:43:01;;;;;;;14.85;6.75;;;33.80;54.70;;;;;;5118729;27;20051;-50
2021/06/26 05:45:29;;;;;;;21.00;6.53;;;33.80;54.20;;;;;;5119671;27;20118;-49
2021/06/26 05:47:56;;;;;;;13.57;6.13;;;33.80;53.60;;;;;;5107167;28;20097;-51
2021/06/26 05:50:24;;;;;;;18.38;6.78;;;33.80;53.70;;;;;;5137768;27;20051;-49
2021/06/26 05:52:54;;;;;;;11.32;5.50;;;33.90;53.40;;;;;;5101540;27;20047;-50
2021/06/26 05:55:24;;;;;;;14.45;6.38;;;34.00;53.60;;;;;;5102565;27;20572;-48
2021/06/26 05:57:52;;;;;;;26.42;6.35;;;34.10;53.70;;;;;;5090995;28;20079;-48
2021/06/26 06:00:21;;;;;;;16.63;6.53;;;34.10;53.70;;;;;;5101341;27;20405;-54
2021/06/26 06:02:50;;;;;;;14.40;6.03;;;34.20;53.70;;;;;;5091187;28;20366;-49
2021/06/26 06:05:18;;;;;;;15.85;6.93;;;34.30;53.60;;;;;;5118298;27;20047;-50
2021/06/26 06:07:46;;;;;;;16.23;5.28;;;34.40;53.80;;;;;;5108257;28;20040;-49
2021/06/26 06:10:17;;;;;;;14.75;5.97;;;34.50;53.90;;;;;;5100370;27;20047;-49
2021/06/26 06:12:45;;;;;;;12.55;5.60;;;34.60;53.80;;;;;;5118565;27;20553;-49
2021/06/26 06:15:14;;;;;;;11.98;5.13;;;34.80;53.90;;;;;;5119092;27;20031;-49
2021/06/26 06:17:41;;;;;;;9.57;4.45;;;34.80;54.00;;;;;;5108845;28;20048;-48
2021/06/26 06:20:10;;;;;;;18.20;5.10;;;34.90;54.10;;;;;;5116301;27;20043;-49
2021/06/26 06:22:38;;;;;;;15.93;4.75;;;34.90;54.30;;;;;;5100731;27;20043;-51
2021/06/26 06:25:10;;;;;;;17.00;5.35;;;35.00;54.50;;;;;;5118828;27;20075;-50
2021/06/26 06:27:41;;;;;;;15.15;5.18;;;35.10;54.60;;;;;;5109064;28;20059;-54
2021/06/26 06:30:10;;;;;;;12.70;4.65;;;35.20;54.80;;;;;;5099182;27;20135;-52
2021/06/26 06:32:38;;;;;;;15.43;5.05;;;35.20;55.10;;;;;;5100458;27;20058;-50
2021/06/26 06:35:08;;;;;;;9.77;4.97;;;35.30;55.30;;;;;;5118706;27;20055;-48
2021/06/26 06:37:37;;;;;;;13.93;4.38;;;35.10;55.70;;;;;;5108165;28;20401;-48
2021/06/26 06:40:07;;;;;;;10.80;4.95;;;35.10;55.70;;;;;;5115372;27;20061;-49
2021/06/26 06:42:35;;;;;;;15.77;5.35;;;35.20;55.70;;;;;;5135571;27;20051;-52
2021/06/26 06:45:04;;;;;;;18.70;4.82;;;35.30;55.80;;;;;;5101226;27;20039;-54
2021/06/26 06:47:32;;;;;;;12.70;5.13;;;35.40;55.60;;;;;;5093094;28;20047;-54
2021/06/26 06:49:59;;;;;;;17.70;5.35;;;35.60;55.80;;;;;;5132589;27;20408;-48
2021/06/26 06:52:28;;;;;;;13.25;4.43;;;35.60;55.60;;;;;;5084161;27;20427;-52
2021/06/26 06:54:56;;;;;;;16.40;5.03;;;35.70;55.50;;;;;;5101891;28;20047;-48
2021/06/26 06:57:25;;;;;;;10.07;4.80;;;35.90;55.30;;;;;;5110250;27;20126;-49
2021/06/26 06:59:54;;;;;;;13.05;4.13;;;35.90;54.80;;;;;;5118123;27;20058;-48
2021/06/26 07:02:22;;;;;;;14.35;4.93;;;35.90;55.60;;;;;;5083363;27;20887;-54
2021/06/26 07:04:50;;;;;;;15.65;4.90;;;35.90;55.20;;;;;;5136227;27;20047;-49
2021/06/26 07:07:18;;;;;;;15.85;5.30;;;36.00;55.40;;;;;;5096948;27;20051;-49
2021/06/26 07:09:47;;;;;;;12.60;4.30;;;36.10;56.10;;;;;;5101379;27;20055;-52
2021/06/26 07:12:14;;;;;;;10.75;3.83;;;36.20;55.30;;;;;;5135151;27;20043;-48
2021/06/26 07:14:42;;;;;;;18.30;4.78;;;36.40;55.40;;;;;;5117639;27;20519;-50
2021/06/26 07:17:10;;;;;;;13.07;4.50;;;36.50;55.10;;;;;;5114086;27;20500;-49
2021/06/26 07:19:39;;;;;;;13.40;4.15;;;36.60;54.70;;;;;;5135633;27;20058;-49
2021/06/26 07:22:07;;;;;;;13.00;4.13;;;36.50;54.70;;;;;;5113821;27;20035;-49
2021/06/26 07:24:34;;;;;;;10.68;3.60;;;36.50;54.50;;;;;;5117538;27;20039;-48
2021/06/26 07:27:03;;;;;;;9.27;3.45;;;36.50;54.50;;;;;;5114074;27;20040;-49
2021/06/26 07:29:30;;;;;;;10.35;3.65;;;36.60;54.40;;;;;;5117448;27;20051;-49
2021/06/26 07:31:58;;;;;;;10.20;4.55;;;36.50;55.00;;;;;;5097202;27;20043;-49
2021/06/26 07:34:26;;;;;;;12.57;3.75;;;36.40;55.10;;;;;;5117165;27;20071;-54
2021/06/26 07:36:54;;;;;;;11.50;4.00;;;36.50;55.50;;;;;;5134785;27;20138;-54
2021/06/26 07:39:22;;;;;;;12.95;4.07;;;36.60;55.90;;;;;;5108747;27;20058;-54
2021/06/26 07:41:50;;;;;;;11.55;4.28;;;36.60;55.90;;;;;;5113446;27;20050;-53
2021/06/26 07:44:18;;;;;;;10.68;3.75;;;36.60;56.00;;;;;;5107959;27;20075;-49
2021/06/26 07:46:45;;;;;;;11.60;3.70;;;36.60;56.00;;;;;;5116865;27;20043;-52
2021/06/26 07:49:13;;;;;;;10.68;4.05;;;36.80;55.70;;;;;;5082251;27;20051;-50
2021/06/26 07:51:41;;;;;;;18.08;4.57;;;36.70;55.10;;;;;;5113069;27;20040;-53
2021/06/26 07:54:09;;;;;;;14.57;4.18;;;36.70;54.70;;;;;;5107933;27;20133;-50
2021/06/26 07:56:37;;;;;;;14.70;3.80;;;36.80;54.90;;;;;;5099492;27;20035;-51
2021/06/26 07:59:05;;;;;;;19.00;3.97;;;36.90;55.20;;;;;;5116432;27;20079;-49
2021/06/26 08:01:33;;;;;;;13.82;3.38;;;37.00;54.20;;;;;;5113343;27;20135;-50
2021/06/26 08:04:02;;;;;;;18.50;4.68;;;37.00;54.10;;;;;;5107820;27;20451;-49
2021/06/26 08:06:30;;;;;;;10.30;3.75;;;37.10;54.60;;;;;;5115915;27;20092;-50
2021/06/26 08:08:57;;;;;;;12.73;3.75;;;37.20;54.30;;;;;;5134671;27;20055;-50
2021/06/26 08:11:25;;;;;;;12.02;3.67;;;37.20;53.50;;;;;;5115332;27;20128;-50
2021/06/26 08:13:54;;;;;;;14.23;4.78;;;37.30;54.20;;;;;;5134779;27;20131;-50
2021/06/26 08:16:21;;;;;;;15.77;4.20;;;37.20;54.40;;;;;;5115344;27;20096;-50
2021/06/26 08:18:49;;;;;;;16.02;3.92;;;37.20;54.10;;;;;;5095280;27;20054;-49
2021/06/26 08:21:21;;;;;;;12.20;3.67;;;37.20;54.50;;;;;;5115913;27;20770;-50
2021/06/26 08:23:50;;;;;;;10.02;3.92;;;37.30;53.50;;;;;;5130295;27;20129;-49
2021/06/26 08:26:18;;;;;;;9.45;3.38;;;37.40;53.90;;;;;;5098427;27;20047;-49
2021/06/26 08:28:45;;;;;;;13.15;4.15;;;37.40;53.00;;;;;;5099316;27;20496;-49
2021/06/26 08:31:13;;;;;;;10.25;4.22;;;37.50;53.10;;;;;;5098660;27;20518;-50
2021/06/26 08:33:41;;;;;;;23.38;6.18;;;37.50;53.20;;;;;;5116205;28;20039;-49
2021/06/26 08:36:10;;;;;;;13.68;4.20;;;37.60;52.60;;;;;;5115234;27;20053;-49
2021/06/26 08:38:39;;;;;;;10.15;3.53;;;37.70;52.40;;;;;;5099117;27;20051;-50
2021/06/26 08:41:07;;;;;;;12.73;4.28;;;37.60;52.50;;;;;;5115516;27;20558;-49
2021/06/26 08:43:35;;;;;;;13.93;4.03;;;37.50;52.50;;;;;;5132416;27;20066;-50
2021/06/26 08:46:03;;;;;;;14.52;4.78;;;37.50;52.50;;;;;;5098426;28;20067;-50
2021/06/26 08:48:33;;;;;;;11.98;3.60;;;37.30;51.90;;;;;;5115950;28;20418;-53
2021/06/26 08:51:01;;;;;;;10.13;4.28;;;37.40;51.90;;;;;;5115181;28;20062;-52
2021/06/26 08:53:29;;;;;;;13.02;3.60;;;37.40;51.80;;;;;;5115878;27;20050;-48
2021/06/26 08:55:57;;;;;;;12.95;3.80;;;37.40;51.80;;;;;;5133690;28;20443;-51
2021/06/26 08:58:25;;;;;;;9.70;3.80;;;37.30;52.70;;;;;;5115734;28;20058;-51
2021/06/26 09:00:53;;;;;;;12.75;3.83;;;37.30;52.90;;;;;;5117954;27;20055;-56
2021/06/26 09:03:23;;;;;;;13.18;4.03;;;37.20;52.80;;;;;;5119811;27;20553;-52
2021/06/26 09:05:51;;;;;;;13.68;4.57;;;37.20;52.80;;;;;;5120012;27;20055;-55
2021/06/26 09:08:20;;;;;;;17.10;5.43;;;37.20;52.60;;;;;;5119729;27;20138;-55
2021/06/26 09:10:51;;;;;;;11.63;3.38;;;37.10;52.20;;;;;;5138419;27;20059;-50
2021/06/26 09:13:34;;;;;;;12.93;3.15;;;37.10;51.70;;;;;;5096814;27;20047;-52
2021/06/26 09:16:13;;;;;;;15.02;3.22;;;37.20;52.20;;;;;;5102435;27;20478;-55
2021/06/26 09:18:46;;;;;;;9.02;3.10;;;37.20;52.00;;;;;;5136842;27;20055;-51
2021/06/26 09:21:36;;;;;;;10.60;3.60;;;37.30;52.30;;;;;;5137412;27;20496;-55
2021/06/26 09:24:05;;;;;;;10.57;3.95;;;37.30;52.10;;;;;;5117069;27;20409;-55
2021/06/26 09:26:40;;;;;;;15.98;4.22;;;37.20;52.00;;;;;;5137235;27;20047;-53
2021/06/26 09:29:08;;;;;;;;;;;37.30;52.00;;;;;;5120195;27;20074;-53
2021/06/26 09:31:36;;;;;;;14.90;4.13;;;37.40;52.40;;;;;;5137354;27;20273;-53
2021/06/26 09:34:04;;;;;;;14.88;3.35;;;37.40;52.10;;;;;;5119565;27;20448;-52
2021/06/26 09:36:32;;;;;;;14.30;4.13;;;37.50;52.00;;;;;;5118544;27;20552;-53
2021/06/26 09:39:08;;;;;;;14.27;4.20;;;37.60;51.90;;;;;;5102815;27;20058;-54
2021/06/26 09:41:37;;;;;;;10.40;3.67;;;37.60;51.70;;;;;;5098613;27;20485;-53
2021/06/26 09:44:13;;;;;;;11.40;3.50;;;37.40;51.70;;;;;;5137305;27;20050;-49
2021/06/26 09:46:50;;;;;;;16.80;3.95;;;37.50;52.10;;;;;;5116189;27;20051;-49
2021/06/26 09:49:29;;;;;;;11.35;3.67;;;37.50;51.60;;;;;;5137561;27;20057;-49
2021/06/26 09:52:01;;;;;;;9.40;3.38;;;37.30;52.20;;;;;;5136604;27;20070;-52
2021/06/26 09:54:31;;;;;;;12.82;4.25;;;37.30;52.60;;;;;;5137305;27;20515;-53
2021/06/26 09:56:59;;;;;;;10.50;3.78;;;37.30;52.60;;;;;;5098561;27;20142;-54
2021/06/26 09:59:31;;;;;;;12.18;3.45;;;37.20;52.90;;;;;;5119134;27;20123;-53
2021/06/26 10:02:00;;;;;;;12.32;4.07;;;37.10;53.20;;;;;;5136807;27;20084;-55
2021/06/26 10:04:28;;;;;;;12.23;4.32;;;37.20;53.50;;;;;;5101863;27;20054;-55
2021/06/26 10:06:58;;;;;;;15.95;5.05;;;37.30;53.20;;;;;;5114974;28;20046;-56
2021/06/26 10:09:28;;;;;;;12.00;4.85;;;37.20;53.20;;;;;;5090207;28;20047;-55
2021/06/26 10:11:56;;;;;;;17.13;3.95;;;37.20;53.20;;;;;;5102974;27;20477;-56
2021/06/26 10:14:26;;;;;;;8.70;3.20;;;37.10;53.30;;;;;;5101899;27;20393;-55
2021/06/26 10:16:55;;;;;;;12.40;3.85;;;37.00;53.30;;;;;;5101226;27;20047;-53
2021/06/26 10:19:27;;;;;;;10.18;4.43;;;36.90;53.50;;;;;;5128807;27;20055;-53
2021/06/26 10:21:56;;;;;;;15.23;3.90;;;37.00;53.70;;;;;;5098888;27;20078;-54
2021/06/26 10:24:24;;;;;;;11.15;3.85;;;36.90;53.80;;;;;;5118305;27;20054;-50
2021/06/26 10:26:52;;;;;;;10.68;3.17;;;37.00;53.80;;;;;;5115155;27;20043;-52
2021/06/26 10:29:33;;;;;;;11.98;3.55;;;37.00;54.00;;;;;;5118226;27;20050;-51
2021/06/26 10:32:15;;;;;;;12.98;4.20;;;37.10;53.70;;;;;;5098310;27;20404;-51
2021/06/26 10:34:48;;;;;;;12.15;4.72;;;37.10;53.80;;;;;;5136826;27;20039;-53
2021/06/26 10:37:24;;;;;;;12.25;3.47;;;37.20;53.50;;;;;;5097188;27;20069;-49
2021/06/26 10:40:05;;;;;;;10.70;3.90;;;37.20;53.90;;;;;;5117077;27;20564;-53
2021/06/26 10:42:36;;;;;;;14.02;3.53;;;37.20;53.60;;;;;;5091676;28;20591;-49
2021/06/26 10:45:06;;;;;;;11.32;3.58;;;36.90;53.70;;;;;;5114526;27;20054;-50
2021/06/26 10:47:42;;;;;;;11.27;3.88;;;36.90;54.00;;;;;;5116897;27;20043;-49
2021/06/26 10:50:16;;;;;;;22.98;4.40;;;36.80;54.20;;;;;;5117400;27;20058;-52
2021/06/26 10:52:58;;;;;;;10.88;3.95;;;36.60;54.10;;;;;;5135412;27;20092;-49
2021/06/26 10:55:27;;;;;;;9.25;3.55;;;36.60;55.00;;;;;;5114909;28;20477;-49
2021/06/26 10:57:56;;;;;;;11.20;3.88;;;36.60;54.40;;;;;;5113575;27;20048;-49
2021/06/26 11:00:41;;;;;;;13.48;4.32;;;36.60;54.60;;;;;;5117478;27;20066;-50
2021/06/26 11:03:32;;;;;;;12.85;4.25;;;36.50;54.80;;;;;;5135302;27;20055;-51
2021/06/26 11:06:01;;;;;;;11.30;3.83;;;36.40;54.90;;;;;;5135037;27;20070;-49
2021/06/26 11:08:28;;;;;;;12.50;3.70;;;36.50;54.90;;;;;;5135517;27;20137;-49
2021/06/26 11:11:01;;;;;;;9.13;3.42;;;36.60;54.90;;;;;;5116088;27;20120;-50
2021/06/26 11:13:30;;;;;;;15.13;4.10;;;36.70;54.90;;;;;;5116337;27;20100;-51
2021/06/26 11:16:09;;;;;;;15.80;3.88;;;36.70;54.80;;;;;;5116617;27;20047;-49
2021/06/26 11:18:37;;;;;;;11.32;4.30;;;36.60;54.80;;;;;;5117533;27;20500;-51
2021/06/26 11:21:05;;;;;;;11.18;3.97;;;36.50;55.00;;;;;;5116517;27;20047;-49
2021/06/26 11:23:32;;;;;;;10.38;3.88;;;36.50;55.30;;;;;;5100185;27;20563;-49
2021/06/26 11:26:04;;;;;;;11.52;3.58;;;36.60;55.40;;;;;;5134079;27;20454;-49
2021/06/26 11:28:42;;;;;;;14.52;3.92;;;36.40;55.30;;;;;;5134831;27;20096;-50
2021/06/26 11:31:12;;;;;;;10.52;3.60;;;36.40;55.40;;;;;;5134224;27;20157;-50
2021/06/26 11:33:40;;;;;;;12.18;3.58;;;36.50;55.40;;;;;;5117058;27;20074;-52
2021/06/26 11:36:10;;;;;;;11.32;3.83;;;36.30;55.00;;;;;;5115826;27;20072;-49
2021/06/26 11:38:39;;;;;;;10.98;3.92;;;36.30;55.20;;;;;;5116710;27;20061;-49
2021/06/26 11:41:08;;;;;;;13.25;3.58;;;36.30;55.50;;;;;;5082441;27;20044;-51
2021/06/26 11:43:36;;;;;;;14.82;4.90;;;36.00;55.90;;;;;;5132175;27;20047;-49
2021/06/26 11:46:05;;;;;;;11.48;4.57;;;35.90;56.00;;;;;;5115558;27;20458;-50
2021/06/26 11:48:33;;;;;;;12.23;4.22;;;35.80;56.00;;;;;;5134437;27;20039;-49
2021/06/26 11:51:05;;;;;;;10.30;4.22;;;35.80;56.00;;;;;;5116140;27;20043;-49
2021/06/26 11:53:38;;;;;;;15.43;3.70;;;35.90;55.40;;;;;;5132346;27;20057;-49
2021/06/26 11:56:06;;;;;;;16.73;4.50;;;35.70;55.00;;;;;;5133679;27;20074;-49
2021/06/26 11:58:46;;;;;;;12.30;4.13;;;35.80;55.40;;;;;;5113489;27;20130;-48
2021/06/26 12:01:18;;;;;;;11.07;3.30;;;35.90;55.20;;;;;;5081815;27;20043;-52
2021/06/26 12:03:46;;;;;;;10.88;3.67;;;36.00;55.30;;;;;;5134615;27;20150;-49
2021/06/26 12:06:15;;;;;;;9.32;3.40;;;35.90;55.50;;;;;;5098513;27;20047;-49
2021/06/26 12:08:52;;;;;;;13.10;4.60;;;35.80;55.50;;;;;;5116309;27;20047;-51
2021/06/26 12:11:31;;;;;;;13.60;3.47;;;35.80;54.80;;;;;;5115015;27;20108;-49
2021/06/26 12:14:00;;;;;;;11.30;4.45;;;35.70;54.60;;;;;;5112586;27;20400;-49
2021/06/26 12:16:36;;;;;;;10.55;3.60;;;35.60;54.80;;;;;;5081404;27;20043;-49
2021/06/26 12:19:08;;;;;;;14.10;3.75;;;35.60;54.30;;;;;;5115893;27;20071;-49
2021/06/26 12:21:47;;;;;;;8.10;3.55;;;35.50;53.00;;;;;;5115306;27;20046;-49
2021/06/26 12:24:30;;;;;;;11.00;3.15;;;35.40;53.10;;;;;;5133801;27;20055;-49
2021/06/26 12:27:29;;;;;;;11.98;2.92;;;35.40;54.10;;;;;;5095692;27;20040;-49
2021/06/26 12:30:07;;;;;;;13.10;4.25;;;35.50;54.70;;;;;;5090995;27;20096;-49
2021/06/26 12:32:38;;;;;;;15.90;3.83;;;35.40;54.10;;;;;;5114998;27;20413;-48
2021/06/26 12:35:08;;;;;;;6.55;3.30;;;35.20;53.00;;;;;;5133223;27;20047;-51
2021/06/26 12:37:39;;;;;;;12.80;3.10;;;35.30;54.30;;;;;;5132806;27;20055;-50
2021/06/26 12:40:16;;;;;;;9.02;2.85;;;35.40;54.70;;;;;;5115581;27;20075;-49
2021/06/26 12:43:16;;;;;;;10.65;3.40;;;35.40;54.90;;;;;;5102029;28;20470;-49
2021/06/26 12:45:51;;;;;;;8.30;2.92;;;35.50;55.10;;;;;;5047831;28;20085;-50
2021/06/26 12:48:26;;;;;;;10.60;3.85;;;35.60;54.70;;;;;;5112969;28;20055;-48
2021/06/26 12:51:06;;;;;;;9.00;3.20;;;35.70;55.10;;;;;;5112866;28;20082;-49